sensor_id;sensor_type;location;lat;lon;timestamp;P1;durP1;ratioP1;P2;durP2;ratioP2
3225;SDS011;1625;49.884;8.666;2022-12-10T05:36:59;18.73;;;16.93;;
3225;SDS011;1625;49.884;8.666;2022-12-10T06:41:47;18.33;;;16.53;;
3225;SDS011;1625;49.884;8.666;2022-12-10T06:44:13;20.70;;;18.73;;
3225;SDS011;1625;49.884;8.666;2022-12-10T06:46:39;20.83;;;18.83;;
3225;SDS011;1625;49.884;8.666;2022-12-10T06:55:52;20.87;;;18.87;;
3225;SDS011;1625;49.884;8.666;2022-12-10T06:58:18;19.10;;;17.20;;
3225;SDS011;1625;49.884;8.666;2022-12-10T10:59:04;15.63;;;14.13;;
3225;SDS011;1625;49.884;8.666;2022-12-10T11:11:01;19.03;;;17.03;;
3225;SDS011;1625;49.884;8.666;2022-12-10T11:13:33;18.27;;;16.43;;
3225;SDS011;1625;49.884;8.666;2022-12-10T11:18:31;17.63;;;16.03;;
3225;SDS011;1625;49.884;8.666;2022-12-10T11:21:06;16.97;;;15.37;;
3225;SDS011;1625;49.884;8.666;2022-12-10T11:26:45;18.23;;;16.17;;
3225;SDS011;1625;49.884;8.666;2022-12-10T11:32:33;16.70;;;15.20;;
3225;SDS011;1625;49.884;8.666;2022-12-10T11:50:47;17.57;;;15.87;;
3225;SDS011;1625;49.884;8.666;2022-12-10T11:56:28;15.60;;;14.10;;
3225;SDS011;1625;49.884;8.666;2022-12-10T12:10:42;13.50;;;9.87;;
3225;SDS011;1625;49.884;8.666;2022-12-10T12:13:35;14.47;;;11.77;;
3225;SDS011;1625;49.884;8.666;2022-12-10T12:16:26;13.57;;;10.20;;
3225;SDS011;1625;49.884;8.666;2022-12-10T12:19:02;12.67;;;9.70;;
3225;SDS011;1625;49.884;8.666;2022-12-10T12:21:33;14.77;;;11.20;;
3225;SDS011;1625;49.884;8.666;2022-12-10T12:26:58;14.63;;;10.30;;
3225;SDS011;1625;49.884;8.666;2022-12-10T12:29:41;13.57;;;10.00;;
3225;SDS011;1625;49.884;8.666;2022-12-10T12:32:36;13.77;;;10.10;;
3225;SDS011;1625;49.884;8.666;2022-12-10T12:37:53;14.27;;;10.57;;
3225;SDS011;1625;49.884;8.666;2022-12-10T12:40:40;14.20;;;11.20;;
3225;SDS011;1625;49.884;8.666;2022-12-10T13:04:44;13.80;;;9.90;;
3225;SDS011;1625;49.884;8.666;2022-12-10T13:09:43;14.80;;;10.50;;
3225;SDS011;1625;49.884;8.666;2022-12-10T13:12:32;13.97;;;9.93;;
3225;SDS011;1625;49.884;8.666;2022-12-10T13:15:18;13.00;;;9.93;;
3225;SDS011;1625;49.884;8.666;2022-12-10T13:18:06;10.67;;;8.90;;
3225;SDS011;1625;49.884;8.666;2022-12-10T13:23:33;15.57;;;9.80;;
3225;SDS011;1625;49.884;8.666;2022-12-10T13:26:24;9.90;;;7.97;;
3225;SDS011;1625;49.884;8.666;2022-12-10T13:28:52;11.57;;;9.50;;
3225;SDS011;1625;49.884;8.666;2022-12-10T13:31:21;11.73;;;8.33;;
3225;SDS011;1625;49.884;8.666;2022-12-10T13:37:18;12.47;;;9.23;;
3225;SDS011;1625;49.884;8.666;2022-12-10T13:42:31;11.13;;;7.80;;
3225;SDS011;1625;49.884;8.666;2022-12-10T13:47:47;11.33;;;8.70;;
3225;SDS011;1625;49.884;8.666;2022-12-10T13:50:33;10.17;;;8.67;;
3225;SDS011;1625;49.884;8.666;2022-12-10T13:55:59;9.57;;;8.47;;
3225;SDS011;1625;49.884;8.666;2022-12-10T14:06:34;10.10;;;7.97;;
3225;SDS011;1625;49.884;8.666;2022-12-10T14:09:38;12.97;;;9.10;;
3225;SDS011;1625;49.884;8.666;2022-12-10T14:12:01;11.00;;;8.47;;
3225;SDS011;1625;49.884;8.666;2022-12-10T14:14:35;12.30;;;9.00;;
3225;SDS011;1625;49.884;8.666;2022-12-10T14:17:06;12.13;;;9.80;;
3225;SDS011;1625;49.884;8.666;2022-12-10T14:22:24;13.57;;;8.67;;
3225;SDS011;1625;49.884;8.666;2022-12-10T14:24:58;12.07;;;10.13;;
3225;SDS011;1625;49.884;8.666;2022-12-10T14:27:31;14.40;;;10.20;;
3225;SDS011;1625;49.884;8.666;2022-12-10T14:30:01;12.70;;;10.00;;
3225;SDS011;1625;49.884;8.666;2022-12-10T14:32:32;11.57;;;8.80;;
3225;SDS011;1625;49.884;8.666;2022-12-10T14:35:01;12.70;;;10.27;;
3225;SDS011;1625;49.884;8.666;2022-12-10T14:37:31;10.57;;;8.90;;
3225;SDS011;1625;49.884;8.666;2022-12-10T14:39:59;11.10;;;8.53;;
3225;SDS011;1625;49.884;8.666;2022-12-10T14:42:33;10.40;;;7.40;;
3225;SDS011;1625;49.884;8.666;2022-12-10T14:45:00;9.67;;;8.40;;
3225;SDS011;1625;49.884;8.666;2022-12-10T14:47:33;11.73;;;8.97;;
3225;SDS011;1625;49.884;8.666;2022-12-10T14:50:03;8.80;;;7.47;;
3225;SDS011;1625;49.884;8.666;2022-12-10T14:52:32;12.53;;;9.43;;
3225;SDS011;1625;49.884;8.666;2022-12-10T14:55:05;10.23;;;8.20;;
3225;SDS011;1625;49.884;8.666;2022-12-10T14:57:32;11.90;;;7.80;;
3225;SDS011;1625;49.884;8.666;2022-12-10T15:00:10;9.33;;;7.63;;
3225;SDS011;1625;49.884;8.666;2022-12-10T15:02:59;10.93;;;8.43;;
3225;SDS011;1625;49.884;8.666;2022-12-10T15:05:31;11.50;;;9.43;;
3225;SDS011;1625;49.884;8.666;2022-12-10T15:10:33;10.67;;;8.60;;
3225;SDS011;1625;49.884;8.666;2022-12-10T15:13:04;11.87;;;9.10;;
3225;SDS011;1625;49.884;8.666;2022-12-10T15:15:36;14.97;;;8.77;;
3225;SDS011;1625;49.884;8.666;2022-12-10T15:20:46;14.03;;;9.90;;
3225;SDS011;1625;49.884;8.666;2022-12-10T15:25:52;11.73;;;9.17;;
3225;SDS011;1625;49.884;8.666;2022-12-10T15:30:56;12.10;;;8.00;;
3225;SDS011;1625;49.884;8.666;2022-12-10T15:33:36;11.13;;;9.23;;
3225;SDS011;1625;49.884;8.666;2022-12-10T15:36:04;10.60;;;8.87;;
3225;SDS011;1625;49.884;8.666;2022-12-10T15:38:30;11.67;;;8.77;;
3225;SDS011;1625;49.884;8.666;2022-12-10T15:40:57;12.23;;;9.20;;
3225;SDS011;1625;49.884;8.666;2022-12-10T15:43:26;11.00;;;8.73;;
3225;SDS011;1625;49.884;8.666;2022-12-10T15:45:55;12.40;;;10.00;;
3225;SDS011;1625;49.884;8.666;2022-12-10T15:48:28;11.37;;;9.40;;
3225;SDS011;1625;49.884;8.666;2022-12-10T15:50:55;12.77;;;9.13;;
3225;SDS011;1625;49.884;8.666;2022-12-10T15:53:25;10.87;;;8.40;;
3225;SDS011;1625;49.884;8.666;2022-12-10T15:55:53;11.17;;;8.73;;
3225;SDS011;1625;49.884;8.666;2022-12-10T15:58:19;11.60;;;8.80;;
3225;SDS011;1625;49.884;8.666;2022-12-10T16:00:45;11.63;;;9.43;;
3225;SDS011;1625;49.884;8.666;2022-12-10T16:03:12;8.47;;;7.60;;
3225;SDS011;1625;49.884;8.666;2022-12-10T16:05:43;11.83;;;10.00;;
3225;SDS011;1625;49.884;8.666;2022-12-10T16:08:24;11.47;;;9.40;;
3225;SDS011;1625;49.884;8.666;2022-12-10T16:10:52;11.40;;;9.50;;
3225;SDS011;1625;49.884;8.666;2022-12-10T16:13:32;11.30;;;8.20;;
3225;SDS011;1625;49.884;8.666;2022-12-10T16:16:05;10.80;;;8.00;;
3225;SDS011;1625;49.884;8.666;2022-12-10T16:18:32;9.67;;;8.67;;
3225;SDS011;1625;49.884;8.666;2022-12-10T16:21:01;9.17;;;8.00;;
3225;SDS011;1625;49.884;8.666;2022-12-10T16:23:27;11.00;;;7.77;;
3225;SDS011;1625;49.884;8.666;2022-12-10T16:25:52;10.83;;;8.23;;
3225;SDS011;1625;49.884;8.666;2022-12-10T16:28:19;10.70;;;7.90;;
3225;SDS011;1625;49.884;8.666;2022-12-10T16:30:47;11.80;;;8.87;;
3225;SDS011;1625;49.884;8.666;2022-12-10T16:33:17;11.47;;;8.90;;
3225;SDS011;1625;49.884;8.666;2022-12-10T16:35:44;10.70;;;9.27;;
3225;SDS011;1625;49.884;8.666;2022-12-10T16:38:10;10.90;;;9.20;;
3225;SDS011;1625;49.884;8.666;2022-12-10T16:40:37;12.17;;;8.80;;
3225;SDS011;1625;49.884;8.666;2022-12-10T16:43:04;10.00;;;8.67;;
3225;SDS011;1625;49.884;8.666;2022-12-10T16:45:32;11.20;;;8.00;;
3225;SDS011;1625;49.884;8.666;2022-12-10T16:48:00;9.23;;;7.63;;
3225;SDS011;1625;49.884;8.666;2022-12-10T16:50:26;10.50;;;9.13;;
3225;SDS011;1625;49.884;8.666;2022-12-10T16:52:52;12.63;;;9.57;;
3225;SDS011;1625;49.884;8.666;2022-12-10T16:55:21;11.87;;;8.70;;
3225;SDS011;1625;49.884;8.666;2022-12-10T16:57:49;19.77;;;11.23;;
3225;SDS011;1625;49.884;8.666;2022-12-10T17:00:16;15.90;;;11.90;;
3225;SDS011;1625;49.884;8.666;2022-12-10T17:02:47;16.17;;;10.23;;
3225;SDS011;1625;49.884;8.666;2022-12-10T17:05:27;16.50;;;11.10;;
3225;SDS011;1625;49.884;8.666;2022-12-10T17:07:56;15.87;;;11.40;;
3225;SDS011;1625;49.884;8.666;2022-12-10T17:10:24;19.90;;;11.73;;
3225;SDS011;1625;49.884;8.666;2022-12-10T17:13:09;17.73;;;11.73;;
3225;SDS011;1625;49.884;8.666;2022-12-10T17:15:36;15.87;;;10.90;;
3225;SDS011;1625;49.884;8.666;2022-12-10T17:18:02;12.10;;;9.00;;
3225;SDS011;1625;49.884;8.666;2022-12-10T17:20:28;10.83;;;8.87;;
3225;SDS011;1625;49.884;8.666;2022-12-10T17:22:54;13.60;;;10.57;;
3225;SDS011;1625;49.884;8.666;2022-12-10T17:25:20;13.00;;;10.20;;
3225;SDS011;1625;49.884;8.666;2022-12-10T17:27:47;13.73;;;10.17;;
3225;SDS011;1625;49.884;8.666;2022-12-10T17:30:16;11.13;;;9.43;;
3225;SDS011;1625;49.884;8.666;2022-12-10T17:32:42;11.63;;;9.60;;
3225;SDS011;1625;49.884;8.666;2022-12-10T17:35:08;12.90;;;10.27;;
3225;SDS011;1625;49.884;8.666;2022-12-10T17:37:35;10.87;;;9.60;;
3225;SDS011;1625;49.884;8.666;2022-12-10T17:40:09;12.50;;;9.40;;
3225;SDS011;1625;49.884;8.666;2022-12-10T17:42:41;12.00;;;9.90;;
3225;SDS011;1625;49.884;8.666;2022-12-10T17:45:07;13.67;;;10.37;;
3225;SDS011;1625;49.884;8.666;2022-12-10T17:47:35;13.57;;;9.50;;
3225;SDS011;1625;49.884;8.666;2022-12-10T17:50:01;13.40;;;9.67;;
3225;SDS011;1625;49.884;8.666;2022-12-10T17:52:30;15.00;;;9.73;;
3225;SDS011;1625;49.884;8.666;2022-12-10T17:54:55;12.83;;;11.10;;
3225;SDS011;1625;49.884;8.666;2022-12-10T17:57:22;10.77;;;9.00;;
3225;SDS011;1625;49.884;8.666;2022-12-10T17:59:49;13.53;;;9.17;;
3225;SDS011;1625;49.884;8.666;2022-12-10T18:02:15;12.23;;;9.80;;
3225;SDS011;1625;49.884;8.666;2022-12-10T18:04:41;13.93;;;10.67;;
3225;SDS011;1625;49.884;8.666;2022-12-10T18:07:10;10.13;;;8.07;;
3225;SDS011;1625;49.884;8.666;2022-12-10T18:09:37;14.20;;;10.23;;
3225;SDS011;1625;49.884;8.666;2022-12-10T18:12:03;15.60;;;12.23;;
3225;SDS011;1625;49.884;8.666;2022-12-10T18:14:32;16.43;;;11.50;;
3225;SDS011;1625;49.884;8.666;2022-12-10T18:29:55;17.53;;;13.30;;
3225;SDS011;1625;49.884;8.666;2022-12-10T18:32:22;16.73;;;14.13;;
3225;SDS011;1625;49.884;8.666;2022-12-10T18:34:48;16.33;;;11.77;;
3225;SDS011;1625;49.884;8.666;2022-12-10T18:37:14;15.33;;;13.73;;
3225;SDS011;1625;49.884;8.666;2022-12-10T18:39:40;15.00;;;11.23;;
3225;SDS011;1625;49.884;8.666;2022-12-10T18:42:05;13.17;;;11.57;;
3225;SDS011;1625;49.884;8.666;2022-12-10T18:44:32;15.40;;;10.83;;
3225;SDS011;1625;49.884;8.666;2022-12-10T18:46:58;13.73;;;11.17;;
3225;SDS011;1625;49.884;8.666;2022-12-10T18:49:24;12.90;;;11.60;;
3225;SDS011;1625;49.884;8.666;2022-12-10T18:51:50;14.53;;;11.10;;
3225;SDS011;1625;49.884;8.666;2022-12-10T18:54:15;14.30;;;11.40;;
3225;SDS011;1625;49.884;8.666;2022-12-10T18:56:42;14.20;;;12.10;;
3225;SDS011;1625;49.884;8.666;2022-12-10T18:59:16;15.43;;;11.30;;
3225;SDS011;1625;49.884;8.666;2022-12-10T19:01:45;16.43;;;12.43;;
3225;SDS011;1625;49.884;8.666;2022-12-10T19:04:11;14.30;;;11.33;;
3225;SDS011;1625;49.884;8.666;2022-12-10T19:06:37;13.90;;;12.10;;
3225;SDS011;1625;49.884;8.666;2022-12-10T19:09:26;15.33;;;13.73;;
3225;SDS011;1625;49.884;8.666;2022-12-10T19:11:53;17.93;;;16.13;;
3225;SDS011;1625;49.884;8.666;2022-12-10T19:14:18;16.83;;;12.40;;
3225;SDS011;1625;49.884;8.666;2022-12-10T19:16:44;16.47;;;12.60;;
3225;SDS011;1625;49.884;8.666;2022-12-10T19:19:11;15.93;;;13.50;;
3225;SDS011;1625;49.884;8.666;2022-12-10T19:21:38;16.83;;;11.90;;
3225;SDS011;1625;49.884;8.666;2022-12-10T19:24:04;19.20;;;15.10;;
3225;SDS011;1625;49.884;8.666;2022-12-10T19:26:34;17.60;;;13.40;;
3225;SDS011;1625;49.884;8.666;2022-12-10T19:31:40;20.80;;;18.90;;
3225;SDS011;1625;49.884;8.666;2022-12-10T19:34:06;21.07;;;18.90;;
3225;SDS011;1625;49.884;8.666;2022-12-10T19:36:32;21.70;;;19.40;;
3225;SDS011;1625;49.884;8.666;2022-12-10T19:38:58;20.93;;;18.83;;
3225;SDS011;1625;49.884;8.666;2022-12-10T19:41:24;19.70;;;17.60;;
3225;SDS011;1625;49.884;8.666;2022-12-10T19:43:50;22.13;;;19.93;;
3225;SDS011;1625;49.884;8.666;2022-12-10T19:46:20;20.07;;;18.07;;
3225;SDS011;1625;49.884;8.666;2022-12-10T19:48:47;21.70;;;19.70;;
3225;SDS011;1625;49.884;8.666;2022-12-10T19:51:13;22.17;;;19.87;;
3225;SDS011;1625;49.884;8.666;2022-12-10T19:53:40;22.83;;;20.27;;
3225;SDS011;1625;49.884;8.666;2022-12-10T19:56:14;21.60;;;19.50;;
3225;SDS011;1625;49.884;8.666;2022-12-10T19:58:45;22.43;;;20.33;;
3225;SDS011;1625;49.884;8.666;2022-12-10T20:01:11;21.50;;;19.50;;
3225;SDS011;1625;49.884;8.666;2022-12-10T20:03:42;22.70;;;20.57;;
3225;SDS011;1625;49.884;8.666;2022-12-10T20:06:19;22.20;;;19.97;;
3225;SDS011;1625;49.884;8.666;2022-12-10T20:09:02;21.97;;;19.77;;
3225;SDS011;1625;49.884;8.666;2022-12-10T20:11:29;23.10;;;20.73;;
3225;SDS011;1625;49.884;8.666;2022-12-10T20:13:55;24.20;;;21.90;;
3225;SDS011;1625;49.884;8.666;2022-12-10T20:50:01;24.03;;;21.60;;
3225;SDS011;1625;49.884;8.666;2022-12-10T20:52:29;23.47;;;21.20;;
3225;SDS011;1625;49.884;8.666;2022-12-10T21:39:53;28.00;;;25.00;;
3225;SDS011;1625;49.884;8.666;2022-12-10T21:42:25;26.77;;;24.00;;
3225;SDS011;1625;49.884;8.666;2022-12-10T21:47:45;28.47;;;25.67;;
3225;SDS011;1625;49.884;8.666;2022-12-10T22:23:00;25.33;;;22.73;;
3225;SDS011;1625;49.884;8.666;2022-12-10T22:25:27;23.27;;;16.80;;
3225;SDS011;1625;49.884;8.666;2022-12-10T22:27:52;24.67;;;22.17;;
3225;SDS011;1625;49.884;8.666;2022-12-10T22:30:18;24.70;;;22.10;;
3225;SDS011;1625;49.884;8.666;2022-12-10T22:32:44;26.23;;;23.73;;
3225;SDS011;1625;49.884;8.666;2022-12-10T22:35:11;25.53;;;22.87;;
3225;SDS011;1625;49.884;8.666;2022-12-10T22:37:38;26.50;;;23.83;;
3225;SDS011;1625;49.884;8.666;2022-12-10T22:40:04;28.20;;;25.23;;
3225;SDS011;1625;49.884;8.666;2022-12-10T22:42:32;29.03;;;26.03;;
3225;SDS011;1625;49.884;8.666;2022-12-10T22:45:05;27.13;;;24.27;;
3225;SDS011;1625;49.884;8.666;2022-12-10T22:47:32;28.17;;;25.20;;
3225;SDS011;1625;49.884;8.666;2022-12-10T22:49:58;27.07;;;24.37;;
3225;SDS011;1625;49.884;8.666;2022-12-10T22:52:28;26.97;;;24.17;;
3225;SDS011;1625;49.884;8.666;2022-12-10T22:54:54;27.27;;;24.57;;
3225;SDS011;1625;49.884;8.666;2022-12-10T22:57:20;28.57;;;25.70;;
3225;SDS011;1625;49.884;8.666;2022-12-10T22:59:46;27.07;;;24.30;;
3225;SDS011;1625;49.884;8.666;2022-12-10T23:02:12;27.13;;;24.43;;
3225;SDS011;1625;49.884;8.666;2022-12-10T23:04:38;28.30;;;25.27;;
3225;SDS011;1625;49.884;8.666;2022-12-10T23:07:04;28.30;;;25.40;;
3225;SDS011;1625;49.884;8.666;2022-12-10T23:09:30;25.93;;;23.30;;
3225;SDS011;1625;49.884;8.666;2022-12-10T23:11:57;26.67;;;24.17;;
3225;SDS011;1625;49.884;8.666;2022-12-10T23:14:42;26.77;;;23.97;;
3225;SDS011;1625;49.884;8.666;2022-12-10T23:17:08;27.63;;;24.93;;
3225;SDS011;1625;49.884;8.666;2022-12-10T23:19:35;25.47;;;22.97;;
3225;SDS011;1625;49.884;8.666;2022-12-10T23:22:01;27.83;;;25.00;;
3225;SDS011;1625;49.884;8.666;2022-12-10T23:24:27;26.40;;;23.80;;
3225;SDS011;1625;49.884;8.666;2022-12-10T23:26:53;26.50;;;23.87;;
3225;SDS011;1625;49.884;8.666;2022-12-10T23:29:19;26.27;;;23.57;;
3225;SDS011;1625;49.884;8.666;2022-12-10T23:31:45;24.93;;;22.53;;
3225;SDS011;1625;49.884;8.666;2022-12-10T23:34:10;24.87;;;22.37;;
3225;SDS011;1625;49.884;8.666;2022-12-10T23:36:36;25.17;;;22.67;;
3225;SDS011;1625;49.884;8.666;2022-12-10T23:39:03;25.73;;;23.13;;
3225;SDS011;1625;49.884;8.666;2022-12-10T23:41:31;26.40;;;23.80;;
3225;SDS011;1625;49.884;8.666;2022-12-10T23:43:57;27.00;;;24.30;;
3225;SDS011;1625;49.884;8.666;2022-12-10T23:46:23;27.37;;;23.90;;
3225;SDS011;1625;49.884;8.666;2022-12-10T23:48:49;26.40;;;23.80;;
3225;SDS011;1625;49.884;8.666;2022-12-10T23:51:15;26.40;;;23.80;;
3225;SDS011;1625;49.884;8.666;2022-12-10T23:53:41;25.87;;;23.20;;
3225;SDS011;1625;49.884;8.666;2022-12-10T23:56:14;26.17;;;23.60;;
3225;SDS011;1625;49.884;8.666;2022-12-10T23:58:42;26.57;;;24.10;;
